Latest Weather Observations for Norah Head

IDN60801

Issued at 10:05 am EDT Sunday 23 November 2014 (issued every 30 minutes, with the page automatically refreshed every 10 minutes)

About weather observations | Map of weather stations | Latest weather observations for NSW | Other Formats
Station Details ID: 061366 Name: NORAH HEAD AWS Lat: -33.28 Lon: 151.58 Height: 18.8 m
Data from the previous 72 hours. | See also: Recent months at Norah Head
Date/Time
EDT
Temp
°C
App
Temp
°C
Dew
Point
Rel
Hum
%
Delta-T
°C
Wind Press
QNH
hPa
Press
MSL
hPa
Rain
since 9 am
mm
Dir
 
Spd
km/h
Gust
km/h
Spd
kts
Gust
kts
23/10:00am 24.3 25.5 20.6 80 2.4 NE 15 19 8 10 1012.0 1011.9 0.0
23/09:30am 21.8 22.9 19.7 88 1.3 NNE 13 15 7 8 1011.9 1011.8 0.0
23/09:00am 24.0 26.2 21.1 84 1.9 NE 11 13 6 7 1011.9 1011.8 0.0
23/08:30am 22.7 25.8 21.0 90 1.1 NE 6 9 3 5 1011.7 1011.6 0.0
23/08:00am 20.7 23.0 19.5 93 0.8 NNE 6 9 3 5 1011.6 1011.5 0.0
23/07:30am 20.5 24.1 19.7 95 0.5 CALM 0 0 0 0 1011.6 1011.5 0.0
23/07:00am 20.1 23.1 19.3 95 0.5 WSW 2 7 1 4 1011.5 1011.4 0.0
23/06:30am 20.0 23.3 19.2 95 0.5 CALM 0 0 0 0 1011.1 1011.0 0.0
23/06:00am 19.9 22.9 19.2 96 0.4 W 2 6 1 3 1010.9 1010.8 0.0
23/05:30am 20.2 23.3 19.5 96 0.4 W 2 6 1 3 1011.2 1011.1 0.0
23/05:00am 20.1 23.5 19.4 96 0.4 CALM 0 0 0 0 1010.9 1010.8 0.0
23/04:30am 20.2 23.7 19.5 96 0.4 CALM 0 0 0 0 1010.7 1010.6 0.0
23/04:00am 20.2 23.7 19.5 96 0.4 CALM 0 4 0 2 1010.4 1010.3 0.0
23/03:30am 20.3 23.8 19.6 96 0.4 CALM 0 4 0 2 1010.9 1010.8 0.0
23/03:00am 20.3 23.1 19.6 96 0.4 NNW 4 6 2 3 1010.9 1010.8 0.0
23/02:30am 20.4 22.6 19.7 96 0.4 NNE 7 13 4 7 1010.9 1010.8 0.0
23/02:00am 20.4 23.6 19.7 96 0.4 NNW 2 7 1 4 1011.7 1011.6 0.0
23/01:30am 20.5 23.4 19.8 96 0.4 N 4 7 2 4 1012.1 1012.0 0.0
23/01:00am 20.4 22.8 19.7 96 0.4 NNE 6 7 3 4 1011.9 1011.8 0.0
23/12:30am 20.4 22.8 19.7 96 0.4 N 6 9 3 5 1012.8 1012.7 0.0
23/12:00am 20.5 22.0 19.7 95 0.5 N 11 13 6 7 1012.8 1012.7 0.0
 
Date/Time
EDT
Temp
°C
App
Temp
°C
Dew
Point
Rel
Hum
%
Delta-T
°C
Wind Press
QNH
hPa
Press
MSL
hPa
Rain
since 9 am
mm
Dir
 
Spd
km/h
Gust
km/h
Spd
kts
Gust
kts
22/11:30pm 20.5 24.0 19.5 94 0.6 CALM 0 0 0 0 1013.3 1013.2 0.0
22/11:00pm 20.5 24.0 19.5 94 0.6 CALM 0 0 0 0 1013.5 1013.4 0.0
22/10:30pm 20.5 23.3 19.7 95 0.5 N 4 6 2 3 1013.7 1013.6 0.0
22/10:00pm 20.4 21.7 19.4 94 0.6 N 11 17 6 9 1013.5 1013.4 0.0
22/09:30pm 20.5 20.3 19.3 93 0.8 NNE 19 22 10 12 1013.0 1012.9 0.0
22/09:00pm 20.7 21.7 19.4 92 0.8 NNE 13 19 7 10 1012.8 1012.7 0.0
22/08:30pm 20.9 21.4 19.2 90 1.1 NE 15 19 8 10 1012.4 1012.3 0.0
22/08:00pm 21.0 21.4 19.1 89 1.2 NE 15 17 8 9 1012.5 1012.4 0.0
22/07:30pm 21.1 22.3 19.0 88 1.3 ENE 11 15 6 8 1012.1 1012.0 0.0
22/07:00pm 21.0 21.7 18.9 88 1.3 ENE 13 15 7 8 1011.8 1011.7 0.0
22/06:30pm 21.0 21.3 18.8 87 1.4 E 15 19 8 10 1011.2 1011.1 0.0
22/06:00pm 21.0 20.8 18.4 85 1.6 E 17 20 9 11 1010.9 1010.8 0.0
22/05:30pm 21.4 20.8 18.4 83 1.9 E 19 22 10 12 1010.9 1010.8 0.0
22/05:00pm 21.9 20.7 18.3 80 2.3 E 22 26 12 14 1011.1 1011.0 0.0
22/04:30pm 22.2 20.8 18.0 77 2.6 E 22 24 12 13 1011.2 1011.1 0.0
22/04:00pm 22.6 21.9 17.3 72 3.3 E 17 19 9 10 1011.3 1011.2 0.0
22/03:30pm 22.9 21.7 17.6 72 3.3 ESE 20 24 11 13 1011.9 1011.8 0.0
22/03:00pm 22.8 21.5 17.3 71 3.4 ESE 20 22 11 12 1012.1 1012.0 0.0
22/02:30pm 23.4 21.9 17.6 70 3.6 ESE 22 26 12 14 1012.1 1012.0 0.0
22/02:00pm 23.8 22.6 17.5 68 3.9 SE 20 22 11 12 1012.6 1012.5 0.0
22/01:30pm 23.8 23.5 17.3 67 4.0 SE 15 17 8 9 1013.3 1013.2 0.0
22/01:00pm 24.1 24.0 17.8 68 3.9 SE 15 17 8 9 1013.7 1013.6 0.0
22/12:30pm 23.4 23.2 16.7 66 4.1 SE 13 15 7 8 1013.8 1013.7 0.0
22/12:00pm 24.0 23.4 17.5 67 4.0 SSE 17 20 9 11 1014.5 1014.4 0.0
22/11:30am 22.4 20.7 17.1 72 3.3 S 22 26 12 14 1015.2 1015.1 0.0
22/11:00am 21.9 20.5 16.6 72 3.2 S 19 26 10 14 1015.7 1015.6 0.0
22/10:30am 21.4 20.3 16.4 73 3.0 S 17 20 9 11 1016.0 1015.9 0.0
22/10:00am 21.3 20.8 16.0 72 3.2 S 13 20 7 11 1016.0 1015.9 0.0
22/09:30am 21.0 20.9 16.0 73 3.0 SSW 11 17 6 9 1015.9 1015.8 0.0
22/09:00am 20.4 19.9 15.8 75 2.7 SSW 13 20 7 11 1015.9 1015.8 0.0
22/08:30am 20.1 19.3 16.1 78 2.4 S 15 22 8 12 1016.1 1016.0 0.0
22/08:00am 19.9 17.7 16.0 78 2.3 S 22 26 12 14 1015.7 1015.6 0.0
22/07:30am 19.8 17.6 15.9 78 2.3 S 22 28 12 15 1015.4 1015.3 0.0
22/07:00am 19.7 17.6 16.2 80 2.1 S 22 30 12 16 1015.2 1015.1 0.0
22/06:30am 19.7 17.7 16.5 82 1.9 S 22 33 12 18 1015.0 1014.9 0.0
22/06:00am 19.6 16.8 16.4 82 1.9 S 26 33 14 18 1014.5 1014.4 0.0
22/05:30am 19.6 17.3 16.6 83 1.8 S 24 30 13 16 1014.0 1013.9 0.0
22/05:00am 19.6 16.5 16.6 83 1.8 S 28 37 15 20 1013.4 1013.3 0.0
22/04:30am 19.8 16.9 17.0 84 1.7 S 28 37 15 20 1013.2 1013.1 0.0
22/04:00am 19.8 16.2 17.2 85 1.6 S 32 39 17 21 1013.1 1013.0 0.0
22/03:30am 19.8 16.2 17.2 85 1.6 S 32 41 17 22 1013.2 1013.1 0.0
22/03:00am 19.8 16.2 17.2 85 1.6 S 32 43 17 23 1013.1 1013.0 0.0
22/02:30am 19.9 16.2 17.5 86 1.5 S 33 44 18 24 1013.2 1013.1 0.0
22/02:00am 20.0 16.6 17.8 87 1.4 S 32 44 17 24 1013.1 1013.0 0.0
22/01:30am 20.0 15.6 17.6 86 1.5 S 37 50 20 27 1013.2 1013.1 0.0
22/01:00am 20.1 15.8 17.9 87 1.4 S 37 50 20 27 1013.1 1013.0 0.0
22/12:30am 20.3 16.6 18.4 89 1.2 S 35 46 19 25 1013.3 1013.2 0.0
22/12:00am 20.6 16.3 18.7 89 1.2 S 39 54 21 29 1013.0 1012.9 0.0
 
Date/Time
EDT
Temp
°C
App
Temp
°C
Dew
Point
Rel
Hum
%
Delta-T
°C
Wind Press
QNH
hPa
Press
MSL
hPa
Rain
since 9 am
mm
Dir
 
Spd
km/h
Gust
km/h
Spd
kts
Gust
kts
21/11:30pm 20.7 15.8 19.0 90 1.1 S 43 56 23 30 1012.4 1012.3 0.0
21/11:00pm 20.9 17.2 19.2 90 1.1 SSW 37 56 20 30 1012.3 1012.2 0.0
21/10:56pm 20.9 17.2 19.2 90 1.1 SSW 37 56 20 30 1012.2 1012.1 0.0
21/10:30pm 21.1 17.0 19.2 89 1.2 S 39 52 21 28 1011.9 1011.8 0.0
21/10:00pm 21.1 16.9 19.0 88 1.3 SSW 39 50 21 27 1011.6 1011.5 0.0
21/09:30pm 21.2 16.9 19.5 90 1.1 SSW 41 54 22 29 1010.9 1010.8 0.0
21/09:00pm 21.4 17.9 20.4 94 0.6 S 39 54 21 29 1009.8 1009.7 0.0
21/08:30pm 21.9 20.0 20.9 94 0.7 S 32 41 17 22 1008.9 1008.9 0.0
21/08:00pm 22.2 20.2 20.7 91 1.0 S 32 43 17 23 1008.1 1008.1 0.0
21/07:30pm 22.6 19.9 20.5 88 1.4 S 35 48 19 26 1007.2 1007.2 0.0
21/07:15pm 22.9 20.7 20.4 86 1.6 S 32 41 17 22 1006.6 1006.6 0.0
21/07:00pm 23.5 25.2 20.2 82 2.1 SSW 11 15 6 8 1005.7 1005.7 0.0
21/06:30pm 24.0 26.5 19.9 78 2.6 NE 6 9 3 5 1004.8 1004.8 0.0
21/06:00pm 24.2 26.4 20.3 79 2.5 NE 9 15 5 8 1004.4 1004.4 0.0
21/05:30pm 24.3 26.1 20.4 79 2.5 N 11 15 6 8 1004.0 1004.0 0.0
21/05:00pm 24.6 27.5 19.9 75 3.0 NE 4 11 2 6 1004.0 1004.0 0.0
21/04:30pm 24.5 24.0 20.0 76 2.9 NNE 22 33 12 18 1003.8 1003.8 0.0
21/04:00pm 24.8 24.2 19.8 74 3.2 NNE 22 28 12 15 1003.8 1003.8 0.0
21/03:30pm 24.8 22.3 19.8 74 3.2 NE 32 39 17 21 1003.8 1003.8 0.0
21/03:00pm 24.9 22.3 19.9 74 3.2 NE 33 43 18 23 1003.8 1003.8 0.0
21/02:30pm 25.6 23.1 20.2 72 3.5 NE 33 44 18 24 1004.3 1004.3 0.0
21/02:00pm 27.8 27.1 19.6 61 5.3 ENE 22 28 12 15 1004.6 1004.6 0.0
21/01:47pm 30.6 31.4 17.3 45 8.4 NNE 9 24 5 13 1004.7 1004.7 0.0
21/01:30pm 36.0 34.8 11.6 23 14.5 NW 9 17 5 9 1004.7 1004.7 0.0
21/01:00pm 34.9 33.6 13.7 28 13.0 NW 13 22 7 12 1004.8 1004.8 0.0
21/12:30pm 38.0 36.0 12.6 22 15.5 WNW 15 28 8 15 1005.2 1005.2 0.0
21/12:00pm 37.0 36.7 15.5 28 13.6 NW 11 22 6 12 1005.5 1005.5 0.0
21/11:30am 35.9 35.7 16.6 31 12.3 NNW 13 20 7 11 1005.9 1005.9 0.0
21/11:00am 35.2 34.9 16.5 33 11.9 NW 13 22 7 12 1006.2 1006.2 0.0
21/10:30am 34.5 34.0 16.8 34 11.3 NW 15 24 8 13 1006.6 1006.6 0.0
21/10:00am 33.4 34.1 18.0 40 10.0 WNW 11 26 6 14 1006.9 1006.9 0.0
21/09:51am 32.3 33.9 19.2 46 8.6 NW 9 19 5 10 1007.1 1007.1 0.0
21/09:30am 27.0 28.9 18.6 60 5.4 NE 6 9 3 5 1007.3 1007.3 0.0
21/09:00am 26.2 28.8 17.6 59 5.4 CALM 0 0 0 0 1007.5 1007.5 0.0
21/08:30am 26.7 30.0 19.1 63 4.9 CALM 0 0 0 0 1007.7 1007.7 0.0
21/08:00am 25.1 28.4 19.9 73 3.4 N 2 4 1 2 1007.6 1007.6 0.0
21/07:30am 23.3 26.8 19.5 79 2.4 CALM 0 4 0 2 1007.5 1007.5 0.0
21/07:00am 22.8 25.8 19.2 80 2.3 NE 2 7 1 4 1006.8 1006.8 0.0
21/06:30am 21.8 24.2 18.8 83 1.9 ESE 4 7 2 4 1007.1 1007.1 0.0
21/06:00am 22.6 23.6 18.6 78 2.5 SSW 11 19 6 10 1006.6 1006.6 0.0
21/05:30am 21.7 23.0 20.2 91 1.0 NW 13 24 7 13 1006.3 1006.3 0.0
21/05:00am 21.7 23.8 20.9 95 0.5 NW 11 13 6 7 1005.3 1005.3 0.0
21/04:30am 21.0 23.1 20.2 95 0.5 NW 9 11 5 6 1005.2 1005.2 0.0
21/04:00am 21.1 23.3 20.4 96 0.5 NNW 9 11 5 6 1005.2 1005.2 0.0
21/03:30am 21.1 23.8 20.3 95 0.5 NNW 6 7 3 4 1005.3 1005.3 0.0
21/03:00am 20.6 22.8 19.6 94 0.6 NNW 7 9 4 5 1005.6 1005.6 0.0
21/02:30am 20.6 23.0 19.6 94 0.6 NNW 6 7 3 4 1005.8 1005.8 0.0
21/02:00am 20.8 23.3 19.8 94 0.6 N 6 6 3 3 1006.0 1006.0 0.0
21/01:30am 20.9 23.3 19.7 93 0.8 NNW 6 9 3 5 1006.3 1006.3 0.0
21/01:00am 21.1 23.4 19.9 93 0.8 N 7 9 4 5 1006.6 1006.6 0.0
21/12:30am 21.2 23.7 19.8 92 0.9 N 6 9 3 5 1007.1 1007.1 0.0
21/12:00am 21.4 23.0 20.0 92 0.9 NNE 11 13 6 7 1007.7 1007.7 0.0
 
Date/Time
EDT
Temp
°C
App
Temp
°C
Dew
Point
Rel
Hum
%
Delta-T
°C
Wind Press
QNH
hPa
Press
MSL
hPa
Rain
since 9 am
mm
Dir
 
Spd
km/h
Gust
km/h
Spd
kts
Gust
kts
20/11:30pm 21.6 22.9 20.2 92 0.9 NNE 13 17 7 9 1007.8 1007.8 0.0
20/11:00pm 21.5 23.5 20.0 91 1.0 NNE 9 15 5 8 1008.0 1008.0 0.0
20/10:30pm 21.8 22.8 20.3 91 1.0 NNE 15 19 8 10 1008.2 1008.2 0.0
20/10:00pm 21.7 22.3 20.3 92 0.9 NNE 17 20 9 11 1008.1 1008.1 0.0
20/09:30pm 21.6 21.8 20.2 92 0.9 NNE 19 26 10 14 1007.8 1007.8 0.0
20/09:00pm 21.4 22.6 20.0 92 0.9 N 13 15 7 8 1007.9 1007.9 0.0
20/08:30pm 21.5 22.4 20.1 92 0.9 N 15 20 8 11 1007.8 1007.8 0.0
20/08:00pm 21.7 21.3 20.2 91 1.0 N 22 26 12 14 1007.6 1007.6 0.0
20/07:30pm 21.8 23.1 20.1 90 1.1 N 13 17 7 9 1007.5 1007.5 0.0
20/07:00pm 22.1 21.7 20.2 89 1.2 NNE 22 30 12 16 1007.4 1007.4 0.0
20/06:30pm 22.3 21.2 20.2 88 1.4 NNE 26 30 14 16 1007.0 1007.0 0.0
20/06:00pm 22.4 20.1 20.1 87 1.5 NNE 32 37 17 20 1006.9 1006.9 0.0
20/05:30pm 22.6 20.7 20.1 86 1.6 NNE 30 33 16 18 1007.0 1007.0 0.0
20/05:00pm 22.9 21.9 20.4 86 1.6 NNE 26 30 14 16 1007.3 1007.3 0.0
20/04:30pm 23.0 21.8 20.0 83 1.9 NE 26 30 14 16 1007.9 1007.9 0.0
20/04:00pm 23.5 21.5 20.0 81 2.3 NE 30 35 16 19 1008.1 1008.1 0.0
20/03:30pm 23.8 21.9 20.1 80 2.4 NE 30 35 16 19 1008.3 1008.3 0.0
20/03:00pm 25.0 23.8 20.0 74 3.2 NE 26 32 14 17 1008.9 1008.9 0.0
20/02:30pm 26.9 27.0 21.2 71 3.8 NE 22 26 12 14 1009.7 1009.6 0.0
20/02:00pm 26.7 28.0 21.7 74 3.3 ENE 17 24 9 13 1010.3 1010.2 0.0
20/01:30pm 25.4 24.9 20.0 72 3.5 ENE 22 26 12 14 1011.0 1010.9 0.0
20/01:00pm 25.3 24.0 19.0 68 4.0 ENE 24 28 13 15 1011.5 1011.4 0.0
20/12:30pm 27.8 28.3 21.1 67 4.4 ENE 20 24 11 13 1012.1 1012.0 0.0
20/12:00pm 26.7 27.0 20.5 69 4.1 ENE 19 20 10 11 1012.6 1012.5 0.0
20/11:30am 26.3 26.7 20.6 71 3.7 ENE 19 20 10 11 1013.0 1012.9 0.0
20/11:00am 25.5 26.3 19.9 71 3.6 ENE 15 19 8 10 1013.6 1013.5 0.0
20/10:30am 24.7 26.3 19.1 71 3.6 E 9 11 5 6 1014.1 1014.0 0.0

Other Formats:

Comma delimited format used in spreadsheet applications
http://www.bom.gov.au/fwo/IDN60801/IDN60801.95770.axf

JavaScript Object Notation format (JSON) in row-major order
http://www.bom.gov.au/fwo/IDN60801/IDN60801.95770.json